Terminal Aerodrome Forecast
Issued by NWS Sterling, VA

Current Version | Previous Version | Graphics & Text | Print | Product List | Glossary On
Versions: 1 2 3 4 5 6 7 8 9 10 11 12 13 14 15 16 17 18 19 20 21 22
000
FTUS41 KLWX 271500 AAA
TAFDCA
TAF AMD
KDCA 271506Z 2715/2812 VRB04KT P6SM SCT150
     FM272200 17005KT P6SM SCT200
     FM281000 VRB03KT P6SM OVC060=

USA.gov is the U.S. government's official web portal to all federal, state and local government web resources and services.